Portada
METAR-TAF:

METAR-TAF

Aeroports :

Gatineau, Quebec, Canadà

latitud: 45-31N, longitud: 075-34W, altitud: 64 m

Observació

L'informe es va fer fa 9 hores i 22 minuts, a les 01:00 UTC
Vent 5 kt del Est/Nord-Est
Temperatura 22°C
Humitat 69%
Pressió 1010 hPa
Visibilitat: 24.1 km
Núvols disperses a una alçada de 17000 ft
Cel ennuvolat a una alçada de 24000 ft

METAR: CYND 190100Z 07005KT 15SM SCT170 BKN240 22/16 A2983 RMK AC4CI3 LAST STFD OBS/NEXT 191100 UTC SLP102 DENSITY ALT 1200FT

Hora: 06:22 (10:22 UTC)

Pronòstic

L'informe es va fer fa 16 hores i 40 minuts, a les 17:42 UTC
Pronòstic vàlid del 18 a les 18 UTC al 19 a les 01 UTC
Vent 6 kt del Est
Visibilitat: 10 km
Núvols disperses a una alçada de 24000 ft
A partir de les 19 a les 0000 UTC
Vent 6 kt del Est/Sud-Est
Visibilitat: 10 km
Cel ennuvolat a una alçada de 24000 ft

TAF: CYND 181742Z 1818/1901 09006KT P6SM SCT240 FM190000 12006KT P6SM BKN240 RMK NXT FCST WILL BE ISSUED AT 191245Z

Observacions i pronòstics meteorològics de més de 4000 aeroports (METAR i TAF).

Les estacions disponibles són els punts grocs i vermells al mapa.

Posi el ratolí al punt desitjat per veure el nom de l'estació.

Feu clic per veure les observacions i els pronòstics meteorològics.

Per canviar el mapa: feu clic els botons verds amb una creu de color negre per apropar; al botó verd amb un guió per allunyar la imatge; o en les fletxes verdes per a mapes adjacents.


METAR-TAF: